KARW

Beaufort County Airport

Beaufort, South Carolina, USA
METAR KARW 201035Z AUTO 24008KT 7SM SCT050 12/12 A2962 RMK AO2
Observed Flight Rules
Jan-20 @ 10:35 UTC (23 minutes ago) Visual Flight Rules
Wind Visibility Clouds
240° at 8 knots 7 miles
  • Scattered at 5,000' AGL
Temperatures Readings
Current 12°C / 54°F
Dewpoint 12°C / 54°F
Humidity 100%
Altimeter 29.62" Hg
Pressure 1003.02 hPa
Elevation 4
METAR KARW 201035Z AUTO 24008KT 7SM SCT050 12/12 A2962 RMK AO2
Observed Flight Rules
Jan-20 @ 10:35 UTC
(23 minutes ago)
VFR
Wind Visibility
240° at 8 knots 7 miles
Clouds
  • Scattered at 5,000' AGL
Temperature Dewpoint
12°C / 54°F 12°C / 54°F
Humidity Altimeter Pressure
100% 29.62" Hg 1003.02 hPa